createdAt,value
2019-02-19T00:02:12.489Z,1.85
2019-02-19T00:04:47.316Z,1.93
2019-02-19T00:07:18.895Z,2.05
2019-02-19T00:09:50.739Z,2.16
2019-02-19T00:12:22.376Z,2.27
2019-02-19T00:14:53.980Z,2.33
2019-02-19T00:17:25.593Z,2.33
2019-02-19T00:19:57.318Z,2.33
2019-02-19T00:22:29.213Z,2.33
2019-02-19T00:25:00.966Z,2.38
2019-02-19T00:27:32.889Z,2.44
2019-02-19T00:30:04.624Z,2.45
2019-02-19T00:32:36.388Z,2.50
2019-02-19T00:35:07.957Z,2.57
2019-02-19T00:37:39.567Z,2.63
2019-02-19T00:40:11.619Z,2.66
2019-02-19T00:42:43.192Z,2.72
2019-02-19T00:45:16.953Z,2.75
2019-02-19T00:47:48.214Z,2.76
2019-02-19T00:50:20.236Z,2.81
2019-02-19T00:52:52.081Z,2.87
2019-02-19T00:55:23.691Z,2.92
2019-02-19T00:57:56.282Z,2.96
2019-02-19T01:00:28.050Z,3.01
2019-02-19T01:02:59.891Z,3.08
2019-02-19T01:05:31.784Z,3.09
2019-02-19T01:08:03.316Z,3.16
2019-02-19T01:10:35.100Z,3.26
2019-02-19T01:13:06.785Z,3.31
2019-02-19T01:15:38.513Z,3.32
2019-02-19T01:18:10.424Z,3.24
2019-02-19T01:20:42.435Z,3.15
2019-02-19T01:23:14.309Z,3.35
2019-02-19T01:25:47.163Z,3.40
2019-02-19T01:28:19.125Z,3.38
2019-02-19T01:30:50.931Z,3.47
2019-02-19T01:33:22.629Z,3.44
2019-02-19T01:35:54.497Z,3.38
2019-02-19T01:38:26.222Z,3.37
2019-02-19T01:40:57.900Z,3.35
2019-02-19T01:43:29.607Z,3.32
2019-02-19T01:46:01.384Z,3.35
2019-02-19T01:48:33.551Z,3.44
2019-02-19T01:51:05.165Z,3.48
2019-02-19T01:53:36.688Z,3.48
2019-02-19T01:56:08.631Z,3.46
2019-02-19T01:58:40.236Z,3.43
2019-02-19T02:01:11.984Z,3.49
2019-02-19T02:03:43.832Z,3.56
2019-02-19T02:06:15.355Z,3.53
2019-02-19T02:08:47.026Z,3.60
2019-02-19T02:11:18.462Z,3.65
2019-02-19T02:13:50.033Z,3.65
2019-02-19T02:16:21.874Z,3.64
2019-02-19T02:18:53.547Z,3.72
2019-02-19T02:21:25.481Z,3.73
2019-02-19T02:23:57.223Z,3.77
2019-02-19T02:26:29.108Z,3.81
2019-02-19T02:29:00.818Z,3.87
2019-02-19T02:31:32.473Z,3.92
2019-02-19T02:34:04.003Z,3.97
2019-02-19T02:36:36.010Z,4.05
2019-02-19T02:39:08.536Z,4.14
2019-02-19T02:41:40.292Z,4.18
2019-02-19T02:44:11.782Z,4.19
2019-02-19T02:46:43.296Z,4.17
2019-02-19T02:49:14.962Z,4.22
2019-02-19T02:51:46.591Z,4.23
2019-02-19T02:54:18.186Z,4.25
2019-02-19T02:56:53.246Z,4.25
2019-02-19T02:59:24.943Z,4.29
2019-02-19T03:01:56.430Z,4.33
2019-02-19T03:04:28.285Z,4.31
2019-02-19T03:07:12.477Z,4.34
2019-02-19T03:09:44.321Z,4.38
2019-02-19T03:12:16.125Z,4.34
2019-02-19T03:14:47.882Z,4.36
2019-02-19T03:17:19.779Z,4.32
2019-02-19T03:19:51.342Z,4.29
2019-02-19T03:22:23.127Z,4.21
2019-02-19T03:24:54.775Z,4.23
2019-02-19T03:27:27.489Z,4.27
2019-02-19T03:29:59.032Z,4.32
2019-02-19T03:32:30.761Z,4.35
2019-02-19T03:35:02.390Z,4.40
2019-02-19T03:37:33.845Z,4.41
2019-02-19T03:40:07.527Z,4.42
2019-02-19T03:42:38.878Z,4.42
2019-02-19T03:45:11.800Z,4.43
2019-02-19T03:47:43.437Z,4.40
2019-02-19T03:50:15.055Z,4.39
2019-02-19T03:52:46.904Z,4.41
2019-02-19T03:55:18.763Z,4.47
2019-02-19T03:57:50.573Z,4.45
2019-02-19T04:00:22.163Z,4.43
2019-02-19T04:02:54.298Z,4.34
2019-02-19T04:05:25.965Z,4.35
2019-02-19T04:07:57.764Z,4.40
2019-02-19T04:10:29.672Z,4.42
2019-02-19T04:13:01.315Z,4.43
2019-02-19T04:15:32.930Z,4.44
2019-02-19T04:18:04.805Z,4.48
2019-02-19T04:20:36.533Z,4.50
2019-02-19T04:23:08.116Z,4.49
2019-02-19T04:25:39.736Z,4.52
2019-02-19T04:28:11.370Z,4.49
2019-02-19T04:31:01.941Z,4.40
2019-02-19T04:33:33.537Z,4.39
2019-02-19T04:36:05.305Z,4.38
2019-02-19T04:38:37.464Z,4.38
2019-02-19T04:41:09.199Z,4.42
2019-02-19T04:43:40.862Z,4.47
2019-02-19T04:46:13.848Z,4.50
2019-02-19T04:48:47.205Z,4.52
2019-02-19T04:51:18.771Z,4.49
2019-02-19T04:53:50.423Z,4.47
2019-02-19T04:56:21.918Z,4.47
2019-02-19T04:58:53.672Z,4.44
2019-02-19T05:01:25.316Z,4.43
2019-02-19T05:03:56.771Z,4.46
2019-02-19T05:06:28.467Z,4.49
2019-02-19T05:09:00.144Z,4.51
2019-02-19T05:11:31.880Z,4.52
2019-02-19T05:14:03.621Z,4.54
2019-02-19T05:16:40.794Z,4.52
2019-02-19T05:19:08.574Z,4.50
2019-02-19T05:21:40.136Z,4.52
2019-02-19T05:24:11.732Z,4.52
2019-02-19T05:26:43.502Z,4.55
2019-02-19T05:29:15.332Z,4.54
2019-02-19T05:31:47.152Z,4.52
2019-02-19T05:34:18.950Z,4.56
2019-02-19T05:36:50.858Z,4.59
2019-02-19T05:39:22.620Z,4.61
2019-02-19T05:41:54.217Z,4.60
2019-02-19T05:44:25.939Z,4.62
2019-02-19T05:46:57.825Z,4.61
2019-02-19T05:49:29.567Z,4.61
2019-02-19T05:52:01.154Z,4.64
2019-02-19T05:54:33.095Z,4.66
2019-02-19T05:57:06.448Z,4.68
2019-02-19T05:59:38.232Z,4.71
2019-02-19T06:02:09.808Z,4.74
2019-02-19T06:04:41.675Z,4.77
2019-02-19T06:07:13.353Z,4.77
2019-02-19T06:09:45.375Z,4.74
2019-02-19T06:12:17.056Z,4.77
2019-02-19T06:14:48.789Z,4.82
2019-02-19T06:17:20.544Z,4.85
2019-02-19T06:19:55.387Z,4.87
2019-02-19T06:22:26.955Z,4.84
2019-02-19T06:24:58.814Z,4.85
2019-02-19T06:27:30.451Z,4.87
2019-02-19T06:30:02.332Z,4.81
2019-02-19T06:32:33.978Z,4.81
2019-02-19T06:35:06.174Z,4.86
2019-02-19T06:37:39.055Z,4.92
2019-02-19T06:40:24.552Z,4.93
2019-02-19T06:42:56.302Z,4.99
2019-02-19T06:45:28.335Z,5.02
2019-02-19T06:47:59.998Z,5.06
2019-02-19T06:50:31.728Z,5.08
2019-02-19T06:53:06.821Z,5.12
2019-02-19T06:55:38.490Z,5.19
2019-02-19T06:58:14.365Z,5.22
2019-02-19T07:00:43.588Z,5.28
2019-02-19T07:03:28.694Z,5.31
2019-02-19T07:06:00.386Z,5.31
2019-02-19T07:08:32.090Z,5.35
2019-02-19T07:11:03.868Z,5.36
2019-02-19T07:13:35.519Z,5.41
2019-02-19T07:16:06.983Z,5.51
2019-02-19T07:18:38.783Z,5.65
2019-02-19T07:21:10.631Z,5.71
2019-02-19T07:23:42.263Z,5.82
2019-02-19T07:26:14.595Z,5.88
2019-02-19T07:28:46.515Z,5.76
2019-02-19T07:31:18.468Z,5.77
2019-02-19T07:33:51.385Z,5.73
2019-02-19T07:36:23.052Z,5.73
2019-02-19T07:38:54.953Z,5.75
2019-02-19T07:41:26.611Z,5.85
2019-02-19T07:43:58.276Z,5.94
2019-02-19T07:46:29.886Z,6.04
2019-02-19T07:49:01.460Z,6.10
2019-02-19T07:51:33.041Z,6.11
2019-02-19T07:54:04.898Z,6.21
2019-02-19T07:56:37.574Z,6.28
2019-02-19T07:59:09.629Z,6.28
2019-02-19T08:01:41.666Z,6.27
2019-02-19T08:04:14.131Z,6.39
2019-02-19T08:06:46.040Z,6.45
2019-02-19T08:09:17.685Z,6.47
2019-02-19T08:11:51.006Z,6.57
2019-02-19T08:14:22.573Z,6.70
2019-02-19T08:16:54.782Z,6.81
2019-02-19T08:19:26.416Z,6.93
2019-02-19T08:21:58.933Z,7.06
2019-02-19T08:24:31.141Z,7.15
2019-02-19T08:27:03.219Z,7.27
2019-02-19T08:29:34.828Z,7.37
2019-02-19T08:32:07.224Z,7.44
2019-02-19T08:34:38.932Z,7.46
2019-02-19T08:37:12.040Z,7.53
2019-02-19T08:39:43.800Z,7.72
2019-02-19T08:42:15.593Z,7.80
2019-02-19T08:44:47.712Z,7.49
2019-02-19T08:47:19.625Z,7.72
2019-02-19T08:49:51.615Z,7.85
2019-02-19T08:52:23.343Z,7.93
2019-02-19T08:54:55.373Z,8.07
2019-02-19T08:57:27.245Z,8.13
2019-02-19T08:59:58.797Z,8.21
2019-02-19T09:02:30.668Z,8.27
2019-02-19T09:05:02.458Z,8.30
2019-02-19T09:07:34.240Z,8.36
2019-02-19T09:10:06.805Z,8.39
2019-02-19T09:12:38.687Z,8.46
2019-02-19T09:15:11.532Z,8.54
2019-02-19T09:17:51.651Z,8.55
2019-02-19T09:20:16.672Z,8.63
2019-02-19T09:22:48.423Z,8.73
2019-02-19T09:25:20.132Z,8.72
2019-02-19T09:27:52.515Z,8.86
2019-02-19T09:30:24.604Z,8.93
2019-02-19T09:32:56.432Z,8.87
2019-02-19T09:35:28.551Z,9.03
2019-02-19T09:38:00.927Z,9.04
2019-02-19T09:40:33.578Z,9.14
2019-02-19T09:43:05.264Z,9.21
2019-02-19T09:45:44.213Z,9.14
2019-02-19T09:48:16.578Z,8.97
2019-02-19T09:50:49.299Z,8.69
2019-02-19T09:53:21.029Z,8.72
2019-02-19T09:55:52.919Z,8.50
2019-02-19T09:58:25.042Z,8.66
2019-02-19T10:00:56.629Z,8.66
2019-02-19T10:03:28.519Z,8.93
2019-02-19T10:06:00.601Z,8.95
2019-02-19T10:08:32.775Z,9.04
2019-02-19T10:11:04.439Z,9.26
2019-02-19T10:13:36.059Z,9.59
2019-02-19T10:16:07.707Z,9.90
2019-02-19T10:18:39.710Z,10.15
2019-02-19T10:21:12.004Z,10.09
2019-02-19T10:23:44.006Z,10.29
2019-02-19T10:26:15.714Z,10.12
2019-02-19T10:28:47.454Z,10.14
2019-02-19T10:31:19.104Z,10.25
2019-02-19T10:33:53.944Z,10.34
2019-02-19T10:36:25.848Z,10.45
2019-02-19T10:38:58.055Z,10.39
2019-02-19T10:41:29.934Z,10.47
2019-02-19T10:44:07.558Z,10.44
2019-02-19T10:46:39.286Z,10.35
2019-02-19T10:49:10.999Z,10.37
2019-02-19T10:51:43.717Z,10.32
2019-02-19T10:54:15.445Z,10.30
2019-02-19T10:56:51.572Z,9.96
2019-02-19T10:59:23.358Z,9.91
2019-02-19T11:01:55.250Z,10.04
2019-02-19T11:04:31.094Z,9.97
2019-02-19T11:07:02.987Z,10.00
2019-02-19T11:09:42.181Z,10.00
2019-02-19T11:12:14.022Z,9.96
2019-02-19T11:14:45.990Z,9.87
2019-02-19T11:17:20.804Z,10.00
2019-02-19T11:19:53.781Z,10.11
2019-02-19T11:22:26.019Z,10.33
2019-02-19T11:24:58.229Z,10.43
2019-02-19T11:27:31.333Z,10.21
2019-02-19T11:30:03.473Z,10.20
2019-02-19T11:32:35.317Z,10.44
2019-02-19T11:35:08.310Z,10.51
2019-02-19T11:37:40.072Z,10.62
2019-02-19T11:40:13.566Z,10.69
2019-02-19T11:42:45.551Z,10.88
2019-02-19T11:45:17.593Z,11.52
2019-02-19T11:47:52.114Z,11.90
2019-02-19T11:50:23.662Z,13.12
2019-02-19T11:52:55.348Z,15.35
2019-02-19T11:55:26.990Z,16.54
2019-02-19T11:57:58.724Z,17.20
2019-02-19T12:00:39.821Z,14.72
2019-02-19T12:03:11.802Z,16.58
2019-02-19T12:05:43.850Z,17.04
2019-02-19T12:08:15.830Z,17.89
2019-02-19T12:10:54.061Z,18.78
2019-02-19T12:13:25.857Z,18.63
2019-02-19T12:15:57.751Z,18.86
2019-02-19T12:18:29.945Z,19.51
2019-02-19T12:21:01.870Z,20.43
2019-02-19T12:23:33.817Z,19.78
2019-02-19T12:26:05.832Z,21.15
2019-02-19T12:28:38.324Z,20.70
2019-02-19T12:31:09.986Z,19.07
2019-02-19T12:33:41.820Z,19.53
2019-02-19T12:36:13.699Z,19.53
2019-02-19T12:38:45.379Z,20.21
2019-02-19T12:41:17.231Z,20.83
2019-02-19T12:43:50.954Z,20.96
2019-02-19T12:46:23.021Z,21.41
2019-02-19T12:48:55.100Z,20.65
2019-02-19T12:51:27.228Z,20.56
2019-02-19T12:53:59.180Z,20.65
2019-02-19T12:56:30.986Z,21.03
2019-02-19T12:59:02.875Z,21.09
2019-02-19T13:01:34.808Z,20.67
2019-02-19T13:04:06.949Z,20.62
2019-02-19T13:06:38.664Z,20.94
2019-02-19T13:09:10.806Z,19.71
2019-02-19T13:11:42.857Z,20.19
2019-02-19T13:14:14.944Z,20.20
2019-02-19T13:16:46.810Z,20.56
2019-02-19T13:19:18.719Z,20.22
2019-02-19T13:21:50.495Z,20.49
2019-02-19T13:24:22.300Z,20.65
2019-02-19T13:26:54.432Z,21.22
2019-02-19T13:29:26.064Z,20.88
2019-02-19T13:31:57.985Z,20.35
2019-02-19T13:34:30.846Z,20.86
2019-02-19T13:37:02.914Z,19.36
2019-02-19T13:39:34.939Z,19.58
2019-02-19T13:42:06.918Z,18.80
2019-02-19T13:44:38.920Z,19.07
2019-02-19T13:47:10.804Z,19.90
2019-02-19T13:49:43.543Z,20.18
2019-02-19T13:52:42.084Z,20.10
2019-02-19T13:55:21.704Z,20.20
2019-02-19T13:57:53.485Z,19.80
2019-02-19T14:00:26.451Z,19.72
2019-02-19T14:02:58.128Z,19.86
2019-02-19T14:05:29.789Z,19.88
2019-02-19T14:08:01.929Z,19.81
2019-02-19T14:10:33.708Z,20.10
2019-02-19T14:13:05.512Z,20.63
2019-02-19T14:16:02.909Z,20.54
2019-02-19T14:19:05.670Z,20.44
2019-02-19T14:21:59.441Z,19.96
2019-02-19T14:24:42.664Z,20.07
2019-02-19T14:27:44.838Z,19.65
2019-02-19T14:30:41.602Z,19.45
2019-02-19T14:33:32.587Z,19.61
2019-02-19T14:36:35.753Z,19.92
2019-02-19T14:39:29.632Z,20.24
2019-02-19T14:42:29.200Z,20.46
2019-02-19T14:45:18.216Z,20.23
2019-02-19T14:48:08.962Z,19.68
2019-02-19T14:51:05.942Z,19.69
2019-02-19T14:54:14.513Z,19.72
2019-02-19T14:56:57.004Z,19.69
2019-02-19T14:59:55.258Z,19.41
2019-02-19T15:02:48.530Z,19.00
2019-02-19T15:05:43.016Z,18.86
2019-02-19T15:08:39.632Z,18.29
2019-02-19T15:11:30.363Z,18.62
2019-02-19T15:14:11.564Z,18.48
2019-02-19T15:17:17.093Z,17.64
2019-02-19T15:20:07.733Z,17.19
2019-02-19T15:22:57.407Z,16.39
2019-02-19T15:26:03.465Z,16.24
2019-02-19T15:28:40.489Z,15.93
2019-02-19T15:31:43.747Z,15.95
2019-02-19T15:34:32.818Z,16.05
2019-02-19T15:37:32.385Z,16.17
2019-02-19T15:40:23.195Z,16.11
2019-02-19T15:43:23.999Z,16.10
2019-02-19T15:46:11.359Z,15.64
2019-02-19T15:49:06.531Z,14.95
2019-02-19T15:51:57.523Z,14.21
2019-02-19T15:54:39.373Z,13.68
2019-02-19T15:57:25.961Z,13.16
2019-02-19T16:00:15.329Z,12.94
2019-02-19T16:03:08.696Z,12.69
2019-02-19T16:06:11.254Z,12.55
2019-02-19T16:09:10.716Z,12.44
2019-02-19T16:12:07.447Z,12.34
2019-02-19T16:15:01.418Z,12.29
2019-02-19T16:17:46.991Z,12.21
2019-02-19T16:20:43.539Z,12.25
2019-02-19T16:23:33.112Z,12.03
2019-02-19T16:26:36.683Z,11.93
2019-02-19T16:29:24.750Z,11.85
2019-02-19T16:32:24.844Z,11.75
2019-02-19T16:35:06.204Z,11.63
2019-02-19T16:38:12.267Z,11.48
2019-02-19T16:41:11.631Z,11.38
2019-02-19T16:44:05.430Z,11.29
2019-02-19T16:46:59.900Z,11.18
2019-02-19T16:49:49.723Z,11.06
2019-02-19T16:52:32.815Z,10.92
2019-02-19T16:55:11.943Z,10.84
2019-02-19T16:57:52.034Z,10.65
2019-02-19T17:00:50.717Z,10.53
2019-02-19T17:03:44.859Z,10.55
2019-02-19T17:06:50.816Z,10.47
2019-02-19T17:09:43.081Z,10.41
2019-02-19T17:12:36.969Z,10.44
2019-02-19T17:15:34.764Z,10.46
2019-02-19T17:18:26.122Z,10.41
2019-02-19T17:21:21.193Z,10.43
2019-02-19T17:24:08.786Z,10.43
2019-02-19T17:27:07.797Z,10.33
2019-02-19T17:30:17.167Z,10.23
2019-02-19T17:33:11.265Z,10.19
2019-02-19T17:36:19.822Z,10.11
2019-02-19T17:39:10.349Z,10.02
2019-02-19T17:41:59.389Z,9.89
2019-02-19T17:44:49.172Z,9.70
2019-02-19T17:47:39.984Z,9.53
2019-02-19T17:50:26.997Z,9.34
2019-02-19T17:53:16.698Z,9.17
2019-02-19T17:55:56.226Z,9.07
2019-02-19T17:58:32.503Z,9.01
2019-02-19T18:01:35.593Z,8.87
2019-02-19T18:04:28.524Z,8.76
2019-02-19T18:07:18.995Z,8.73
2019-02-19T18:10:07.549Z,8.64
2019-02-19T18:12:57.705Z,8.58
2019-02-19T18:15:47.425Z,8.60
2019-02-19T18:18:25.854Z,8.62
2019-02-19T18:20:58.126Z,8.68
2019-02-19T18:23:30.322Z,8.71
2019-02-19T18:26:02.278Z,8.71
2019-02-19T18:28:34.929Z,8.66
2019-02-19T18:31:07.425Z,8.64
2019-02-19T18:33:39.329Z,8.59
2019-02-19T18:36:11.234Z,8.57
2019-02-19T18:38:43.386Z,8.56
2019-02-19T18:41:15.512Z,8.53
2019-02-19T18:43:47.442Z,8.50
2019-02-19T18:46:19.786Z,8.50
2019-02-19T18:48:52.233Z,8.52
2019-02-19T18:51:24.401Z,8.55
2019-02-19T18:53:57.972Z,8.56
2019-02-19T18:56:29.843Z,8.56
2019-02-19T18:59:01.804Z,8.56
2019-02-19T19:01:34.095Z,8.57
2019-02-19T19:04:05.851Z,8.48
2019-02-19T19:06:38.753Z,8.40
2019-02-19T19:09:11.608Z,8.33
2019-02-19T19:11:43.585Z,8.31
2019-02-19T19:14:16.680Z,8.28
2019-02-19T19:16:50.247Z,8.24
2019-02-19T19:19:22.344Z,8.17
2019-02-19T19:21:54.767Z,8.12
2019-02-19T19:24:28.011Z,8.05
2019-02-19T19:27:02.515Z,8.00
2019-02-19T19:29:35.469Z,7.90
2019-02-19T19:32:11.631Z,7.83
2019-02-19T19:34:51.539Z,7.71
2019-02-19T19:37:25.334Z,7.61
2019-02-19T19:39:59.053Z,7.50
2019-02-19T19:42:35.841Z,7.41
2019-02-19T19:45:09.846Z,7.27
2019-02-19T19:47:46.127Z,7.18
2019-02-19T19:50:20.583Z,7.03
2019-02-19T19:52:56.302Z,6.86
2019-02-19T19:55:40.404Z,6.72
2019-02-19T19:58:16.095Z,6.61
2019-02-19T20:00:49.771Z,6.40
2019-02-19T20:03:26.665Z,6.25
2019-02-19T20:06:00.259Z,6.14
2019-02-19T20:08:33.425Z,6.15
2019-02-19T20:11:07.075Z,6.20
2019-02-19T20:13:40.669Z,6.14
2019-02-19T20:16:14.449Z,6.02
2019-02-19T20:18:47.669Z,5.89
2019-02-19T20:21:26.732Z,5.73
2019-02-19T20:23:56.312Z,5.59
2019-02-19T20:26:30.787Z,5.51
2019-02-19T20:29:07.716Z,5.39
2019-02-19T20:31:41.778Z,5.28
2019-02-19T20:34:15.346Z,5.16
2019-02-19T20:36:49.713Z,5.10
2019-02-19T20:39:23.168Z,5.09
2019-02-19T20:41:57.684Z,5.04
2019-02-19T20:44:34.047Z,4.99
2019-02-19T20:47:08.153Z,4.80
2019-02-19T20:49:41.845Z,4.95
2019-02-19T20:52:15.798Z,5.10
2019-02-19T20:54:58.156Z,5.18
2019-02-19T20:57:31.939Z,4.95
2019-02-19T21:00:06.191Z,4.72
2019-02-19T21:02:39.884Z,4.71
2019-02-19T21:05:14.394Z,4.75
2019-02-19T21:07:48.153Z,4.70
2019-02-19T21:10:21.562Z,4.62
2019-02-19T21:12:54.794Z,4.55
2019-02-19T21:15:27.181Z,4.52
2019-02-19T21:17:59.690Z,4.37
2019-02-19T21:20:32.779Z,4.22
2019-02-19T21:23:05.630Z,4.06
2019-02-19T21:25:38.937Z,3.99
2019-02-19T21:28:13.314Z,3.93
2019-02-19T21:30:47.783Z,3.79
2019-02-19T21:33:23.289Z,3.70
2019-02-19T21:35:58.062Z,3.61
2019-02-19T21:38:30.811Z,3.48
2019-02-19T21:41:03.364Z,3.43
2019-02-19T21:43:35.837Z,3.45
2019-02-19T21:46:09.454Z,3.54
2019-02-19T21:48:47.993Z,3.59
2019-02-19T21:51:15.157Z,3.63
2019-02-19T21:53:47.137Z,3.68
2019-02-19T21:56:18.909Z,3.61
2019-02-19T21:58:52.323Z,3.53
2019-02-19T22:01:24.306Z,3.48
2019-02-19T22:03:56.792Z,3.43
2019-02-19T22:06:28.768Z,3.42
2019-02-19T22:09:01.263Z,3.36
2019-02-19T22:11:33.158Z,3.17
2019-02-19T22:14:05.250Z,3.07
2019-02-19T22:16:37.486Z,2.97
2019-02-19T22:19:10.285Z,2.90
2019-02-19T22:22:02.999Z,2.88
2019-02-19T22:24:41.414Z,2.84
2019-02-19T22:27:13.621Z,2.85
2019-02-19T22:29:46.210Z,2.81
2019-02-19T22:32:20.162Z,2.66
2019-02-19T22:34:53.253Z,2.50
2019-02-19T22:37:25.154Z,2.34
2019-02-19T22:39:57.611Z,2.18
2019-02-19T22:42:30.102Z,2.06
2019-02-19T22:45:02.675Z,2.01
2019-02-19T22:47:34.601Z,1.93
2019-02-19T22:50:07.097Z,1.85
2019-02-19T22:52:40.407Z,1.79
2019-02-19T22:55:21.569Z,1.74
2019-02-19T22:57:53.340Z,1.83
2019-02-19T23:00:44.754Z,1.79
2019-02-19T23:03:17.675Z,1.62
2019-02-19T23:05:50.017Z,1.53
2019-02-19T23:08:22.849Z,1.48
2019-02-19T23:10:54.645Z,1.49
2019-02-19T23:13:26.899Z,1.50
2019-02-19T23:15:58.777Z,1.55
2019-02-19T23:18:31.133Z,1.60
2019-02-19T23:21:03.133Z,1.59
2019-02-19T23:23:35.642Z,1.58
2019-02-19T23:26:07.582Z,1.59
2019-02-19T23:28:39.320Z,1.68
2019-02-19T23:31:11.820Z,1.75
2019-02-19T23:33:43.792Z,1.74
2019-02-19T23:36:23.315Z,1.53
2019-02-19T23:38:55.508Z,1.32
2019-02-19T23:41:27.470Z,1.15
2019-02-19T23:43:59.305Z,1.01
2019-02-19T23:46:31.142Z,0.91
2019-02-19T23:49:03.206Z,0.78
2019-02-19T23:51:34.933Z,0.63
2019-02-19T23:54:06.942Z,0.58
2019-02-19T23:56:38.888Z,0.55
2019-02-19T23:59:10.878Z,0.53
